Time;durP1;ratioP1;P1;durP2;ratioP2;P2;SDS_P1;SDS_P2;PMS_P1;PMS_P2;Temp;Humidity;BMP_temperature;BMP_pressure;BME280_temperature;BME280_humidity;BME280_pressure;Samples;Min_cycle;Max_cycle;Signal;HPM_P1;HPM_P2
2022/04/02 00:01:19;;;;;;;3.35;1.20;;;1.50;96.80;;;;;;5021469;28;20391;-67
2022/04/02 00:03:45;;;;;;;5.35;1.17;;;1.50;97.20;;;;;;5023172;28;20045;-67
2022/04/02 00:06:10;;;;;;;1.42;0.90;;;1.60;97.90;;;;;;5025768;28;20049;-67
2022/04/02 00:08:36;;;;;;;1.67;1.08;;;1.60;96.90;;;;;;5025628;28;20188;-67
2022/04/02 00:11:02;;;;;;;2.70;1.10;;;1.60;97.10;;;;;;5023627;28;20053;-67
2022/04/02 00:13:30;;;;;;;1.60;1.00;;;1.60;97.90;;;;;;5022784;28;20505;-67
2022/04/02 00:15:59;;;;;;;2.90;1.10;;;1.50;97.80;;;;;;5022539;28;20067;-67
2022/04/02 00:18:25;;;;;;;2.50;0.77;;;1.40;97.70;;;;;;5009577;28;20045;-67
2022/04/02 00:20:51;;;;;;;3.47;1.23;;;1.60;97.80;;;;;;5025117;28;20502;-67
2022/04/02 00:26:02;;;;;;;2.35;1.15;;;1.40;98.20;;;;;;5019505;28;20049;-67
2022/04/02 00:28:28;;;;;;;1.80;1.20;;;1.40;98.10;;;;;;5019830;28;20126;-67
2022/04/02 00:30:55;;;;;;;1.85;1.10;;;1.40;98.40;;;;;;5023425;28;20052;-67
2022/04/02 00:33:20;;;;;;;2.58;0.98;;;1.50;98.80;;;;;;5021856;28;20053;-67
2022/04/02 00:35:46;;;;;;;5.13;1.20;;;1.40;99.20;;;;;;5022434;28;20041;-67
2022/04/02 00:38:12;;;;;;;3.47;1.50;;;1.40;99.60;;;;;;5023103;28;20045;-67
2022/04/02 00:40:42;;;;;;;3.50;1.40;;;1.40;99.90;;;;;;5020109;28;20732;-67
2022/04/02 00:43:20;;;;;;;3.60;1.50;;;1.30;99.90;;;;;;5020417;28;20087;-67
2022/04/02 00:45:46;;;;;;;2.95;1.10;;;1.30;99.90;;;;;;5021595;28;20050;-67
2022/04/02 00:48:11;;;;;;;3.50;1.33;;;1.30;99.90;;;;;;5025428;28;20041;-67
2022/04/02 00:50:37;;;;;;;4.63;1.48;;;1.30;99.90;;;;;;5021312;28;20650;-67
2022/04/02 00:53:02;;;;;;;1.98;1.23;;;1.20;99.90;;;;;;5017857;28;20451;-67
2022/04/02 00:55:30;;;;;;;3.63;1.30;;;1.20;99.90;;;;;;5019173;28;20045;-67
2022/04/02 00:57:57;;;;;;;6.82;1.98;;;1.30;99.90;;;;;;5021246;28;20033;-67
2022/04/02 01:00:23;;;;;;;3.55;1.38;;;1.20;99.90;;;;;;5019055;28;20132;-67
2022/04/02 01:02:49;;;;;;;3.33;1.33;;;1.20;99.90;;;;;;5018411;28;20040;-67
2022/04/02 01:05:14;;;;;;;2.40;1.10;;;1.20;99.90;;;;;;5021084;28;20492;-67
2022/04/02 01:07:40;;;;;;;2.05;1.10;;;1.20;99.90;;;;;;5022234;28;20044;-67
2022/04/02 01:10:06;;;;;;;2.17;1.45;;;1.20;99.90;;;;;;5021088;28;20037;-67
2022/04/02 01:12:32;;;;;;;9.05;1.40;;;1.20;99.90;;;;;;5021014;28;20503;-67
2022/04/02 01:14:58;;;;;;;2.63;1.15;;;1.20;99.90;;;;;;5020529;28;20099;-67
2022/04/02 01:17:23;;;;;;;3.58;1.75;;;1.10;99.90;;;;;;5019406;28;20073;-67
2022/04/02 01:19:50;;;;;;;5.78;1.98;;;1.10;99.90;;;;;;5021569;28;20111;-67
2022/04/02 01:22:15;;;;;;;7.53;1.52;;;1.20;99.90;;;;;;5018752;28;20041;-67
2022/04/02 01:24:41;;;;;;;2.63;1.50;;;1.10;99.90;;;;;;5020223;28;20049;-67
2022/04/02 01:27:07;;;;;;;1.85;1.25;;;1.10;99.90;;;;;;5019014;28;20989;-67
2022/04/02 01:29:33;;;;;;;2.70;1.25;;;1.10;99.90;;;;;;5021987;28;20136;-67
2022/04/02 01:31:59;;;;;;;1.70;1.10;;;1.00;99.90;;;;;;5020231;28;20447;-67
2022/04/02 01:34:28;;;;;;;5.68;1.27;;;1.10;99.90;;;;;;5018509;28;20135;-67
2022/04/02 01:36:54;;;;;;;5.80;1.63;;;1.10;99.90;;;;;;5019546;28;20085;-67
2022/04/02 01:39:20;;;;;;;3.60;1.30;;;1.00;99.90;;;;;;5018442;28;20041;-67
2022/04/02 01:41:46;;;;;;;2.83;1.50;;;1.00;99.90;;;;;;5020570;28;20400;-67
2022/04/02 01:44:11;;;;;;;3.58;1.55;;;1.20;99.90;;;;;;5018276;28;20045;-67
2022/04/02 01:46:37;;;;;;;3.92;1.58;;;1.00;99.90;;;;;;5019935;28;20132;-67
2022/04/02 01:49:03;;;;;;;3.50;1.48;;;1.00;99.90;;;;;;5019789;28;20038;-67
2022/04/02 01:51:29;;;;;;;3.45;1.83;;;1.00;99.90;;;;;;5022546;28;20042;-67
2022/04/02 01:53:55;;;;;;;2.58;1.33;;;1.00;99.90;;;;;;5022370;28;20064;-67
2022/04/02 01:56:20;;;;;;;3.47;1.77;;;1.00;99.90;;;;;;5025394;28;20080;-67
2022/04/02 01:58:46;;;;;;;2.80;1.63;;;1.10;99.90;;;;;;5025345;28;20048;-67
2022/04/02 02:01:12;;;;;;;2.63;1.52;;;1.00;99.90;;;;;;5028746;28;20052;-67
2022/04/02 02:03:38;;;;;;;4.07;1.80;;;1.00;99.90;;;;;;5027693;28;20034;-67
2022/04/02 02:06:03;;;;;;;4.80;1.63;;;0.90;99.90;;;;;;5021945;28;20049;-67
2022/04/02 02:08:29;;;;;;;4.38;1.60;;;0.90;99.90;;;;;;5020587;28;20037;-67
2022/04/02 02:10:56;;;;;;;4.25;1.70;;;0.90;99.90;;;;;;5022059;28;20037;-67
2022/04/02 02:13:23;;;;;;;5.07;1.60;;;0.90;99.90;;;;;;5024960;28;20033;-67
2022/04/02 02:15:49;;;;;;;6.90;1.63;;;0.90;99.90;;;;;;5022611;28;20042;-67
2022/04/02 02:18:14;;;;;;;2.63;1.70;;;0.70;99.90;;;;;;5026951;28;20059;-67
2022/04/02 02:20:40;;;;;;;2.72;1.67;;;1.00;99.90;;;;;;5026836;28;20043;-67
2022/04/02 02:23:06;;;;;;;3.40;1.88;;;1.00;99.90;;;;;;5024009;28;20037;-67
2022/04/02 02:25:32;;;;;;;1.90;1.20;;;0.90;99.90;;;;;;5023666;28;20130;-67
2022/04/02 02:27:58;;;;;;;4.18;1.40;;;0.90;99.90;;;;;;5025067;28;20060;-67
2022/04/02 02:30:24;;;;;;;4.03;1.10;;;0.90;99.90;;;;;;5026457;28;20494;-67
2022/04/02 02:32:49;;;;;;;3.75;1.67;;;0.80;99.90;;;;;;5027584;28;20040;-67
2022/04/02 02:38:09;;;;;;;4.53;1.95;;;0.80;99.90;;;;;;5023317;28;20484;-67
2022/04/02 02:40:36;;;;;;;3.15;1.33;;;0.70;99.90;;;;;;5019818;28;20044;-67
2022/04/02 02:43:02;;;;;;;3.80;1.30;;;0.70;99.90;;;;;;5021407;28;20041;-67
2022/04/02 02:45:28;;;;;;;4.25;1.73;;;0.90;99.90;;;;;;5022645;28;20037;-67
2022/04/02 02:47:54;;;;;;;3.22;1.55;;;0.70;99.90;;;;;;5020923;28;20037;-67
2022/04/02 02:50:21;;;;;;;3.47;1.33;;;0.70;99.90;;;;;;5026598;28;20111;-67
2022/04/02 02:52:47;;;;;;;6.35;1.95;;;0.80;99.90;;;;;;5023641;28;20066;-67
2022/04/02 02:55:13;;;;;;;4.28;1.40;;;0.80;99.90;;;;;;5005212;28;21003;-67
2022/04/02 02:57:43;;;;;;;4.72;2.22;;;0.70;99.90;;;;;;5019871;28;20121;-67
2022/04/02 03:00:10;;;;;;;2.75;1.35;;;0.90;99.90;;;;;;5021587;28;20128;-67
2022/04/02 03:02:38;;;;;;;2.42;1.63;;;0.70;99.90;;;;;;5024603;28;20073;-67
2022/04/02 03:05:09;;;;;;;3.63;1.80;;;0.80;99.90;;;;;;5002379;28;20048;-67
2022/04/02 03:07:37;;;;;;;4.47;1.63;;;0.90;99.90;;;;;;5021145;28;20136;-67
2022/04/02 03:10:03;;;;;;;4.55;2.13;;;0.90;99.90;;;;;;5023799;28;20052;-67
2022/04/02 03:12:29;;;;;;;5.10;1.40;;;0.90;99.90;;;;;;5027159;28;20099;-67
2022/04/02 03:14:54;;;;;;;2.95;1.50;;;1.20;99.90;;;;;;5024267;28;20072;-67
2022/04/02 03:17:20;;;;;;;3.25;1.42;;;1.00;99.90;;;;;;5022636;28;20574;-67
2022/04/02 03:19:46;;;;;;;3.60;1.90;;;1.00;99.90;;;;;;5021750;28;20447;-67
2022/04/02 03:22:12;;;;;;;5.63;1.73;;;1.00;99.90;;;;;;5021550;28;20041;-67
2022/04/02 03:24:38;;;;;;;2.13;1.65;;;1.10;99.90;;;;;;5025593;28;20044;-67
2022/04/02 03:27:04;;;;;;;5.50;1.52;;;1.10;99.90;;;;;;5026817;28;20527;-67
2022/04/02 03:29:30;;;;;;;3.22;1.38;;;1.10;99.90;;;;;;5021538;28;20977;-67
2022/04/02 03:31:56;;;;;;;3.22;1.10;;;1.00;99.90;;;;;;5021744;28;20037;-67
2022/04/02 03:34:21;;;;;;;3.72;1.52;;;1.00;99.90;;;;;;5023975;28;20046;-67
2022/04/02 03:36:47;;;;;;;5.13;1.52;;;0.90;99.90;;;;;;5022337;28;20798;-67
2022/04/02 03:39:13;;;;;;;2.53;1.20;;;0.90;99.90;;;;;;5025849;28;20048;-67
2022/04/02 03:41:40;;;;;;;4.20;1.48;;;0.90;99.90;;;;;;5023669;28;20025;-67
2022/04/02 03:44:05;;;;;;;5.03;1.83;;;1.00;99.90;;;;;;5023719;28;20419;-67
2022/04/02 03:49:16;;;;;;;4.72;1.38;;;0.90;99.90;;;;;;5019213;28;20042;-67
2022/04/02 03:51:44;;;;;;;7.45;1.42;;;0.80;99.90;;;;;;5023879;28;21702;-67
2022/04/02 03:54:10;;;;;;;4.05;1.17;;;0.70;99.90;;;;;;5022363;28;20175;-67
2022/04/02 03:56:35;;;;;;;2.85;1.30;;;0.70;99.90;;;;;;5027049;28;20116;-67
2022/04/02 03:59:02;;;;;;;3.15;1.27;;;0.70;99.90;;;;;;5019423;28;20048;-67
2022/04/02 04:01:27;;;;;;;3.10;1.45;;;0.70;99.90;;;;;;5023131;28;20048;-67
2022/04/02 04:03:53;;;;;;;4.45;1.30;;;0.70;99.90;;;;;;5024386;28;20034;-67
2022/04/02 04:06:18;;;;;;;2.83;1.52;;;0.70;99.90;;;;;;5022937;28;20037;-67
2022/04/02 04:08:44;;;;;;;3.00;1.60;;;0.60;99.90;;;;;;5022130;28;20033;-66
2022/04/02 04:11:10;;;;;;;2.30;1.30;;;0.60;99.90;;;;;;5022749;28;20050;-67
2022/04/02 04:13:36;;;;;;;3.65;1.10;;;0.60;99.90;;;;;;5022461;28;20049;-67
2022/04/02 04:16:02;;;;;;;2.67;1.13;;;0.60;99.90;;;;;;5020885;28;20037;-66
2022/04/02 04:18:28;;;;;;;3.95;1.63;;;0.70;99.90;;;;;;5018027;28;20516;-67
2022/04/02 04:20:54;;;;;;;4.63;1.75;;;0.60;99.90;;;;;;5020763;28;20081;-67
2022/04/02 04:23:19;;;;;;;7.22;1.50;;;0.60;99.90;;;;;;5021197;28;20038;-67
2022/04/02 04:25:45;;;;;;;4.22;1.20;;;0.60;99.90;;;;;;5020440;28;20454;-67
2022/04/02 04:28:10;;;;;;;2.97;1.58;;;0.60;99.90;;;;;;5023020;28;20103;-67
2022/04/02 04:30:36;;;;;;;3.15;1.33;;;0.60;99.90;;;;;;5022729;28;20041;-67
2022/04/02 04:33:02;;;;;;;5.03;1.50;;;0.70;99.90;;;;;;5019941;28;20061;-67
2022/04/02 04:35:28;;;;;;;5.22;1.42;;;0.80;99.90;;;;;;5024500;28;20049;-67
2022/04/02 04:37:54;;;;;;;4.30;1.27;;;1.00;99.90;;;;;;5021869;28;20087;-67
2022/04/02 04:40:19;;;;;;;4.60;1.20;;;0.70;99.90;;;;;;5021638;28;20030;-67
2022/04/02 04:42:45;;;;;;;4.40;1.45;;;0.80;99.90;;;;;;5023303;28;20536;-67
2022/04/02 04:45:11;;;;;;;3.75;1.05;;;0.70;99.90;;;;;;5022520;28;20072;-67
2022/04/02 04:47:36;;;;;;;5.45;1.10;;;0.60;99.90;;;;;;5015890;28;20045;-67
2022/04/02 04:50:03;;;;;;;2.80;1.20;;;0.60;99.90;;;;;;5024737;28;20033;-67
2022/04/02 04:52:28;;;;;;;3.85;1.58;;;0.60;99.90;;;;;;5021794;28;20045;-67
2022/04/02 04:54:54;;;;;;;3.40;1.30;;;0.50;99.90;;;;;;5021203;28;20044;-67
2022/04/02 04:57:20;;;;;;;8.85;1.50;;;0.70;99.90;;;;;;5020477;28;20045;-67
2022/04/02 04:59:46;;;;;;;4.53;1.58;;;0.60;99.90;;;;;;5017078;28;20041;-67
2022/04/02 05:02:12;;;;;;;5.13;1.13;;;0.60;99.90;;;;;;5020080;28;20469;-67
2022/04/02 05:04:38;;;;;;;4.03;1.42;;;0.60;99.90;;;;;;5017086;28;20447;-67
2022/04/02 05:07:04;;;;;;;2.42;1.10;;;0.60;99.90;;;;;;5021289;28;20087;-67
2022/04/02 05:09:30;;;;;;;5.03;1.10;;;0.60;99.90;;;;;;5021981;28;20361;-67
2022/04/02 05:11:57;;;;;;;2.05;1.05;;;0.70;99.90;;;;;;5019273;28;20052;-67
2022/04/02 05:14:23;;;;;;;5.30;1.27;;;0.60;99.90;;;;;;5022466;28;20041;-67
2022/04/02 05:16:51;;;;;;;3.45;1.63;;;0.70;99.90;;;;;;5018127;28;20057;-67
2022/04/02 05:19:18;;;;;;;2.67;1.65;;;0.60;99.90;;;;;;5020667;28;20037;-66
2022/04/02 05:21:43;;;;;;;5.18;0.85;;;0.60;99.90;;;;;;5020632;28;20042;-67
2022/04/02 05:24:09;;;;;;;3.90;1.90;;;0.60;99.90;;;;;;5019565;28;20443;-66
2022/04/02 05:26:35;;;;;;;2.70;1.30;;;0.80;99.90;;;;;;5018521;28;20052;-67
2022/04/02 05:29:01;;;;;;;4.35;1.15;;;0.60;99.90;;;;;;5033590;28;20053;-67
2022/04/02 05:31:27;;;;;;;7.43;1.70;;;0.60;99.90;;;;;;5020382;28;20077;-67
2022/04/02 05:33:54;;;;;;;4.03;1.20;;;0.60;99.90;;;;;;5018449;28;20954;-67
2022/04/02 05:36:20;;;;;;;5.25;1.30;;;0.60;99.90;;;;;;5017938;28;20073;-67
2022/04/02 05:38:45;;;;;;;5.85;1.40;;;0.70;99.90;;;;;;5021650;28;20167;-67
2022/04/02 05:41:11;;;;;;;5.60;1.42;;;0.80;99.90;;;;;;5018501;28;20036;-67
2022/04/02 05:43:37;;;;;;;4.65;1.02;;;0.90;99.90;;;;;;5019128;28;20649;-67
2022/04/02 05:46:02;;;;;;;7.03;1.60;;;1.00;99.90;;;;;;5018327;28;20057;-67
2022/04/02 05:48:30;;;;;;;7.93;2.40;;;1.00;99.90;;;;;;5024660;28;20053;-67
2022/04/02 05:50:55;;;;;;;6.32;1.13;;;1.10;99.90;;;;;;5018602;28;20041;-67
2022/04/02 05:53:23;;;;;;;5.80;1.63;;;1.10;99.90;;;;;;5019384;28;20052;-67
2022/04/02 05:55:49;;;;;;;5.03;1.30;;;1.30;99.90;;;;;;5018778;28;20068;-67
2022/04/02 05:58:15;;;;;;;3.60;1.60;;;1.40;99.90;;;;;;5017525;28;20467;-67
2022/04/02 06:00:41;;;;;;;3.08;1.10;;;1.50;99.90;;;;;;5017519;28;20052;-67
2022/04/02 06:03:07;;;;;;;7.30;1.85;;;1.60;99.90;;;;;;5016510;28;20049;-67
2022/04/02 06:05:33;;;;;;;1.98;1.20;;;1.90;99.90;;;;;;5017328;28;20045;-67
2022/04/02 06:07:58;;;;;;;5.32;1.20;;;2.50;99.90;;;;;;5017070;28;20068;-67
2022/04/02 06:10:24;;;;;;;4.07;0.93;;;3.10;99.90;;;;;;5016784;28;20457;-67
2022/04/02 06:12:51;;;;;;;4.88;1.17;;;3.80;99.90;;;;;;5019336;28;20140;-67
2022/04/02 06:15:18;;;;;;;3.03;1.02;;;4.50;99.90;;;;;;5014871;28;20045;-67
2022/04/02 06:17:43;;;;;;;3.72;1.10;;;5.10;99.90;;;;;;5017234;28;20044;-67
2022/04/02 06:20:09;;;;;;;7.45;1.13;;;5.50;99.90;;;;;;5015831;28;20668;-67
2022/04/02 06:22:36;;;;;;;8.52;1.33;;;5.90;99.90;;;;;;5013912;28;20061;-67
2022/04/02 06:25:03;;;;;;;3.53;1.27;;;6.00;99.90;;;;;;5015291;28;20516;-67
2022/04/02 06:27:28;;;;;;;3.58;1.23;;;6.10;99.90;;;;;;5018556;28;20051;-67
2022/04/02 06:29:57;;;;;;;3.85;0.90;;;6.30;99.70;;;;;;5014200;28;20041;-67
2022/04/02 06:32:23;;;;;;;2.97;1.00;;;6.50;99.90;;;;;;5013841;28;20033;-67
2022/04/02 06:34:49;;;;;;;5.05;1.25;;;6.90;98.20;;;;;;5017134;28;20692;-67
2022/04/02 06:37:15;;;;;;;6.47;1.50;;;7.20;96.60;;;;;;5016995;28;20036;-67
2022/04/02 06:39:41;;;;;;;4.13;1.45;;;7.30;94.50;;;;;;4999541;28;20135;-67
2022/04/02 06:42:08;;;;;;;3.00;1.48;;;7.60;93.40;;;;;;5022396;28;20148;-67
2022/04/02 06:44:34;;;;;;;3.13;1.08;;;7.80;92.10;;;;;;5022605;28;20131;-67
2022/04/02 06:47:00;;;;;;;3.58;1.23;;;8.00;91.40;;;;;;5022094;28;20179;-67
2022/04/02 06:49:26;;;;;;;5.78;1.38;;;8.20;90.80;;;;;;5020524;28;20098;-67
2022/04/02 06:51:51;;;;;;;3.33;1.70;;;8.30;90.10;;;;;;5038613;28;20052;-68
2022/04/02 06:54:17;;;;;;;3.15;1.10;;;8.40;89.00;;;;;;5023881;28;20850;-68
2022/04/02 06:56:44;;;;;;;4.28;1.20;;;8.40;88.00;;;;;;5025344;28;20069;-68
2022/04/02 06:59:10;;;;;;;7.38;1.25;;;8.50;87.30;;;;;;5019188;28;20060;-68
2022/04/02 07:01:35;;;;;;;3.38;1.67;;;8.60;85.10;;;;;;5036423;28;20602;-68
2022/04/02 07:04:01;;;;;;;4.00;1.40;;;8.50;84.40;;;;;;5020960;28;20127;-69
2022/04/02 07:06:27;;;;;;;3.78;1.13;;;8.40;84.00;;;;;;5021498;28;20069;-68
2022/04/02 07:08:53;;;;;;;3.03;1.10;;;8.20;85.30;;;;;;5023590;28;20033;-68
2022/04/02 07:11:18;;;;;;;2.60;1.00;;;8.00;85.90;;;;;;5020846;28;20500;-67
2022/04/02 07:13:44;;;;;;;7.28;1.75;;;7.90;88.60;;;;;;5023099;28;20099;-68
2022/04/02 07:16:10;;;;;;;2.95;1.42;;;7.80;89.40;;;;;;5021235;28;20045;-68
2022/04/02 07:18:41;;;;;;;3.45;1.27;;;7.60;88.20;;;;;;5018809;28;20405;-68
2022/04/02 07:21:08;;;;;;;3.50;1.17;;;7.20;89.40;;;;;;5021321;28;20030;-68
2022/04/02 07:23:38;;;;;;;5.22;2.33;;;7.00;90.00;;;;;;5020703;28;20075;-68
2022/04/02 07:26:04;;;;;;;3.50;0.93;;;6.70;90.90;;;;;;5022076;28;20049;-68
2022/04/02 07:28:30;;;;;;;2.80;1.35;;;6.50;90.90;;;;;;5020791;28;20038;-68
2022/04/02 07:30:56;;;;;;;3.13;1.20;;;6.30;90.80;;;;;;5016022;28;20139;-68
2022/04/02 07:33:21;;;;;;;6.88;2.13;;;6.30;91.80;;;;;;5023423;28;20509;-68
2022/04/02 07:36:09;;;;;;;8.77;1.30;;;6.20;91.30;;;;;;5021144;28;20045;-67
2022/04/02 07:39:00;;;;;;;4.63;2.55;;;6.10;91.40;;;;;;5021702;28;20468;-68
2022/04/02 07:41:42;;;;;;;2.75;1.13;;;6.00;92.00;;;;;;5010603;28;20049;-67
2022/04/02 07:44:21;;;;;;;3.33;1.25;;;5.90;92.40;;;;;;5020653;28;20069;-68
2022/04/02 07:46:48;;;;;;;6.32;1.30;;;5.90;91.90;;;;;;5025874;28;20118;-67
2022/04/02 07:49:20;;;;;;;2.83;1.00;;;5.80;93.10;;;;;;5009443;28;20060;-70
2022/04/02 07:51:51;;;;;;;2.05;1.05;;;5.90;93.00;;;;;;5020070;28;20065;-68
2022/04/02 07:54:20;;;;;;;2.50;1.10;;;5.90;93.00;;;;;;5019595;28;20038;-68
2022/04/02 07:56:50;;;;;;;7.85;2.42;;;6.00;92.90;;;;;;5018266;28;20037;-68
2022/04/02 07:59:26;;;;;;;2.28;0.80;;;6.00;92.00;;;;;;5021264;28;20550;-68
2022/04/02 08:01:53;;;;;;;2.83;1.05;;;5.90;92.50;;;;;;5019793;28;20037;-68
2022/04/02 08:04:21;;;;;;;5.43;1.60;;;5.80;93.00;;;;;;5021611;28;20807;-68
2022/04/02 08:06:49;;;;;;;10.02;3.03;;;5.90;93.50;;;;;;5021513;28;20504;-68
2022/04/02 08:09:17;;;;;;;3.05;1.42;;;5.80;93.50;;;;;;5023346;28;20061;-67
2022/04/02 08:11:45;;;;;;;5.15;1.73;;;6.00;93.60;;;;;;5021471;28;20041;-68
2022/04/02 08:14:12;;;;;;;4.53;1.38;;;6.00;94.50;;;;;;5021195;28;20482;-67
2022/04/02 08:16:43;;;;;;;3.83;1.10;;;6.00;93.50;;;;;;5018483;28;20049;-67
2022/04/02 08:19:22;;;;;;;1.60;0.60;;;5.90;93.20;;;;;;5021327;28;20108;-68
2022/04/02 08:21:48;;;;;;;3.80;1.00;;;5.90;93.70;;;;;;5023077;28;20104;-68
2022/04/02 08:24:14;;;;;;;1.75;0.50;;;5.70;92.30;;;;;;5020559;28;20033;-68
2022/04/02 08:26:56;;;;;;;2.33;1.02;;;5.50;91.50;;;;;;5022763;28;20041;-68
2022/04/02 08:30:01;;;;;;;5.68;1.33;;;5.20;92.70;;;;;;5020669;28;20384;-68
2022/04/02 08:32:37;;;;;;;3.25;0.82;;;5.10;92.50;;;;;;5022695;28;20049;-68
2022/04/02 08:35:09;;;;;;;2.22;0.90;;;4.90;93.40;;;;;;5022988;28;20037;-67
2022/04/02 08:37:37;;;;;;;4.20;0.80;;;4.80;95.10;;;;;;5021135;28;20041;-68
2022/04/02 08:40:02;;;;;;;2.25;0.70;;;4.80;94.40;;;;;;5024198;28;20073;-68
2022/04/02 08:42:43;;;;;;;3.35;0.90;;;4.60;94.90;;;;;;5025838;28;20496;-68
2022/04/02 08:45:11;;;;;;;2.58;0.52;;;4.50;95.80;;;;;;5019562;28;20049;-68
2022/04/02 08:47:58;;;;;;;3.80;0.85;;;4.50;96.80;;;;;;5022546;28;20037;-68
2022/04/02 08:50:36;;;;;;;3.65;1.05;;;4.60;97.30;;;;;;5022545;28;20037;-68
2022/04/02 08:53:22;;;;;;;3.65;0.93;;;4.70;97.20;;;;;;5021239;28;20058;-67
2022/04/02 08:56:01;;;;;;;2.22;0.73;;;4.80;97.20;;;;;;5021821;28;20046;-67
2022/04/02 08:58:47;;;;;;;4.70;1.00;;;4.90;97.70;;;;;;5022890;28;20424;-67
2022/04/02 09:01:42;;;;;;;1.70;0.90;;;5.00;97.30;;;;;;5021985;28;20033;-67
2022/04/02 09:04:37;;;;;;;4.25;1.17;;;5.00;97.40;;;;;;5020372;28;20041;-67
2022/04/02 09:07:38;;;;;;;5.88;1.00;;;5.10;96.00;;;;;;5020110;28;20045;-68
2022/04/02 09:10:13;;;;;;;3.78;0.47;;;5.20;96.60;;;;;;5017869;28;20053;-67
2022/04/02 09:13:23;;;;;;;3.30;1.25;;;5.40;96.60;;;;;;5020982;28;20859;-68
2022/04/02 09:16:04;;;;;;;1.52;0.90;;;5.40;95.80;;;;;;5016060;28;20050;-67
2022/04/02 09:18:42;;;;;;;4.80;1.30;;;5.20;95.40;;;;;;5018069;28;20033;-67
2022/04/02 09:21:29;;;;;;;4.68;1.10;;;5.10;96.00;;;;;;5020351;28;20171;-67
2022/04/02 09:24:29;;;;;;;2.17;0.60;;;5.10;96.20;;;;;;5003743;28;20038;-67
2022/04/02 09:27:10;;;;;;;4.38;0.55;;;5.20;97.00;;;;;;5019108;28;20053;-67
2022/04/02 09:29:57;;;;;;;2.47;0.60;;;5.20;96.30;;;;;;5016198;28;20046;-67
2022/04/02 09:32:58;;;;;;;3.35;0.65;;;5.30;96.70;;;;;;5016975;28;20737;-68
2022/04/02 09:35:53;;;;;;;5.70;1.02;;;5.50;95.50;;;;;;5017540;28;20580;-68
2022/04/02 09:38:55;;;;;;;2.55;0.82;;;5.50;95.20;;;;;;5024222;28;20041;-67
2022/04/02 09:41:58;;;;;;;4.22;1.05;;;5.50;94.50;;;;;;5015693;28;20488;-67
2022/04/02 09:44:48;;;;;;;3.15;0.80;;;5.60;94.90;;;;;;5017665;28;20044;-67
2022/04/02 09:47:26;;;;;;;3.15;0.80;;;5.50;93.70;;;;;;5018056;28;20046;-68
2022/04/02 09:50:11;;;;;;;4.28;0.40;;;5.30;92.50;;;;;;5020062;28;20044;-68
2022/04/02 09:52:44;;;;;;;2.05;0.47;;;5.30;91.90;;;;;;5019253;28;20115;-67
2022/04/02 09:55:20;;;;;;;2.92;0.90;;;5.10;92.90;;;;;;5018587;28;20052;-67
2022/04/02 09:57:46;;;;;;;;;;;5.10;91.50;;;;;;5020381;28;20084;-68
2022/04/02 10:00:16;;;;;;;4.63;0.40;;;5.00;91.40;;;;;;5022049;28;19949;-68
2022/04/02 10:02:47;;;;;;;3.40;0.50;;;4.80;91.70;;;;;;5021362;28;20045;-67
2022/04/02 10:05:19;;;;;;;1.63;0.40;;;4.80;90.80;;;;;;5018644;28;20038;-67
2022/04/02 10:08:06;;;;;;;2.05;0.57;;;5.00;92.10;;;;;;5016049;28;20069;-67
2022/04/02 10:10:32;;;;;;;1.77;0.50;;;5.00;92.50;;;;;;5018161;28;20045;-67
2022/04/02 10:13:00;;;;;;;3.65;0.50;;;5.10;92.40;;;;;;5019527;28;20589;-67
2022/04/02 10:15:27;;;;;;;2.05;0.50;;;5.10;92.10;;;;;;5022047;28;20530;-67
2022/04/02 10:17:53;;;;;;;2.65;0.70;;;5.40;90.40;;;;;;5019577;28;20112;-67
2022/04/02 10:20:21;;;;;;;1.17;0.35;;;5.50;87.60;;;;;;5023946;28;20436;-67
2022/04/02 10:23:02;;;;;;;1.70;0.80;;;5.50;85.80;;;;;;5021660;28;20064;-67
2022/04/02 10:25:32;;;;;;;4.13;0.45;;;5.60;85.00;;;;;;5023441;28;20488;-68
2022/04/02 10:28:01;;;;;;;3.55;1.20;;;5.70;87.70;;;;;;5021911;28;20056;-68
2022/04/02 10:30:31;;;;;;;2.90;0.50;;;6.10;89.30;;;;;;5021736;28;20403;-67
2022/04/02 10:33:26;;;;;;;2.75;0.70;;;6.30;85.70;;;;;;5022452;28;20056;-69
2022/04/02 10:35:46;;;;;;;1.65;0.55;;;6.40;84.50;;;;;;5023600;28;20135;-68
2022/04/02 10:38:36;;;;;;;1.60;0.60;;;6.50;88.70;;;;;;5022703;28;20033;-68
2022/04/02 10:41:14;;;;;;;1.77;0.30;;;6.50;85.40;;;;;;5025040;28;20053;-67
2022/04/02 10:44:09;;;;;;;1.35;0.50;;;6.30;82.10;;;;;;5023431;28;20732;-67
2022/04/02 10:46:40;;;;;;;1.50;0.50;;;6.00;84.70;;;;;;5025353;28;20132;-68
2022/04/02 10:49:10;;;;;;;2.15;0.57;;;5.70;88.10;;;;;;5022900;28;20057;-69
2022/04/02 10:51:39;;;;;;;1.60;0.50;;;5.50;88.50;;;;;;5018033;28;20629;-68
2022/04/02 10:54:07;;;;;;;1.23;0.47;;;5.20;90.00;;;;;;5021235;28;20044;-68
2022/04/02 10:56:42;;;;;;;2.90;0.57;;;5.10;91.80;;;;;;5022189;28;20130;-68
2022/04/02 10:59:18;;;;;;;5.03;1.70;;;5.20;93.20;;;;;;5024657;28;20129;-68
2022/04/02 11:01:46;;;;;;;1.33;0.50;;;5.50;93.80;;;;;;5022993;28;20069;-69
2022/04/02 11:04:30;;;;;;;2.53;0.63;;;5.60;93.90;;;;;;5025616;28;20046;-69
2022/04/02 11:06:58;;;;;;;2.05;0.40;;;5.70;94.00;;;;;;5039045;28;20041;-69
2022/04/02 11:09:28;;;;;;;2.15;0.52;;;6.10;96.50;;;;;;5021728;28;20087;-69
2022/04/02 11:12:02;;;;;;;3.78;0.95;;;6.30;94.20;;;;;;5023777;28;20041;-69
2022/04/02 11:14:47;;;;;;;3.58;0.75;;;6.50;95.60;;;;;;5039122;28;20084;-69
2022/04/02 11:17:33;;;;;;;3.15;0.60;;;6.80;93.50;;;;;;5021476;28;20038;-69
2022/04/02 11:20:22;;;;;;;0.77;0.40;;;7.10;93.50;;;;;;5021933;28;20038;-69
2022/04/02 11:23:02;;;;;;;1.70;0.57;;;7.40;91.60;;;;;;5023479;28;20153;-69
2022/04/02 11:25:31;;;;;;;6.88;1.60;;;7.70;92.00;;;;;;5023800;28;20427;-69
2022/04/02 11:28:11;;;;;;;3.08;0.50;;;7.50;84.70;;;;;;5007545;28;20053;-68
2022/04/02 11:30:41;;;;;;;3.33;0.77;;;7.60;84.90;;;;;;5023113;28;20042;-68
2022/04/02 11:33:12;;;;;;;2.15;0.52;;;7.50;81.00;;;;;;5024521;28;20447;-68
2022/04/02 11:36:06;;;;;;;1.60;0.70;;;6.90;83.30;;;;;;5021472;28;20042;-66
2022/04/02 11:38:45;;;;;;;2.75;0.55;;;6.40;84.50;;;;;;5022260;28;20049;-68
2022/04/02 11:41:21;;;;;;;2.33;0.30;;;6.00;90.00;;;;;;5021151;28;20488;-67
2022/04/02 11:43:48;;;;;;;;;;;5.60;91.40;;;;;;5023999;28;20042;-67
2022/04/02 11:46:20;;;;;;;4.95;0.45;;;5.50;90.50;;;;;;5024664;28;19917;-68
2022/04/02 11:48:56;;;;;;;1.85;0.60;;;5.40;90.80;;;;;;5021625;28;20037;-67
2022/04/02 11:51:31;;;;;;;;;;;5.30;91.10;;;;;;5025000;28;20045;-68
2022/04/02 11:54:04;;;;;;;5.95;0.77;;;5.40;91.10;;;;;;5024341;28;19967;-67
2022/04/02 11:56:35;;;;;;;0.80;0.50;;;5.40;91.10;;;;;;5021288;28;20045;-68
2022/04/02 11:59:08;;;;;;;2.45;0.80;;;5.50;90.90;;;;;;5023686;28;20116;-68
2022/04/02 12:01:50;;;;;;;2.45;0.80;;;5.50;90.40;;;;;;5023840;28;20392;-68
2022/04/02 12:04:24;;;;;;;2.13;0.98;;;5.70;91.80;;;;;;5021581;28;20036;-67
2022/04/02 12:06:52;;;;;;;2.15;0.50;;;5.70;87.40;;;;;;5024291;28;20124;-68
2022/04/02 12:09:22;;;;;;;5.35;0.80;;;5.90;89.80;;;;;;5019440;28;20607;-67
2022/04/02 12:11:52;;;;;;;5.63;0.80;;;6.00;85.10;;;;;;5021890;28;20050;-68
2022/04/02 12:14:36;;;;;;;1.77;0.40;;;6.20;84.30;;;;;;5023673;28;20516;-68
2022/04/02 12:17:13;;;;;;;0.60;0.25;;;6.30;81.60;;;;;;5022280;28;20042;-67
2022/04/02 12:19:40;;;;;;;2.00;0.50;;;6.50;77.80;;;;;;5021495;28;20129;-67
2022/04/02 12:22:22;;;;;;;2.92;0.85;;;6.60;78.10;;;;;;5024358;28;20051;-68
2022/04/02 12:24:52;;;;;;;0.40;0.30;;;6.80;78.80;;;;;;5021093;28;20046;-67
2022/04/02 12:27:22;;;;;;;3.40;0.70;;;7.00;79.10;;;;;;5021630;28;20037;-67
2022/04/02 12:29:50;;;;;;;2.53;0.50;;;7.10;74.90;;;;;;5022718;28;20103;-68
2022/04/02 12:32:35;;;;;;;2.13;0.40;;;7.20;75.00;;;;;;5024814;28;20037;-68
2022/04/02 12:35:10;;;;;;;2.42;0.38;;;7.00;71.70;;;;;;5019600;28;20049;-68
2022/04/02 12:37:45;;;;;;;1.83;0.30;;;6.90;74.80;;;;;;5021399;28;20076;-66
2022/04/02 12:40:24;;;;;;;1.45;0.30;;;7.00;74.10;;;;;;5023288;28;20034;-69
2022/04/02 12:43:16;;;;;;;2.50;0.22;;;6.90;74.40;;;;;;5022749;28;20087;-68
2022/04/02 12:45:41;;;;;;;0.75;0.30;;;7.00;73.60;;;;;;5020705;28;20128;-69
2022/04/02 12:48:17;;;;;;;0.93;0.57;;;7.10;72.70;;;;;;5022171;28;20140;-67
2022/04/02 12:50:52;;;;;;;3.55;0.30;;;7.30;70.90;;;;;;5019979;28;20050;-68
2022/04/02 12:53:40;;;;;;;2.47;0.40;;;7.30;70.10;;;;;;5020443;28;20048;-68
2022/04/02 12:56:27;;;;;;;1.15;0.40;;;7.40;71.80;;;;;;5015312;28;20059;-68
2022/04/02 12:58:54;;;;;;;3.10;0.75;;;7.50;67.90;;;;;;5018362;28;20030;-69
2022/04/02 13:01:21;;;;;;;4.00;0.55;;;7.50;66.20;;;;;;5019206;28;20037;-69
2022/04/02 13:04:13;;;;;;;3.22;0.40;;;7.50;69.80;;;;;;5022168;28;20547;-68
2022/04/02 13:06:42;;;;;;;4.32;0.80;;;7.40;69.20;;;;;;5021704;28;20038;-68
2022/04/02 13:09:21;;;;;;;1.90;0.40;;;7.70;70.30;;;;;;5020012;28;20052;-67
2022/04/02 13:11:53;;;;;;;2.55;0.40;;;8.10;70.70;;;;;;5020062;28;20060;-68
2022/04/02 13:14:21;;;;;;;4.78;0.60;;;7.90;64.30;;;;;;5018092;28;20052;-67
2022/04/02 13:16:54;;;;;;;2.00;0.30;;;7.60;62.50;;;;;;5020656;28;20061;-67
2022/04/02 13:22:13;;;;;;;0.80;0.22;;;7.80;66.00;;;;;;5023166;28;20049;-69
2022/04/02 13:25:06;;;;;;;1.10;0.30;;;8.00;65.70;;;;;;5024569;28;20033;-69
2022/04/02 13:28:10;;;;;;;3.58;0.52;;;7.90;64.10;;;;;;5017183;28;20057;-68